Poseidon — DBKV — position and weather

sailwx.info

Track history (hours):
 
Tides and Currents Weather Stations Pressure Air Temp Water Temp Dewpoint Dewpoint Depression Visibility Wind Speed Wind Dir Waves Ship Positions

Oceanographic research ship Poseidon (Germany)

Detailed information on ship capabilities available from University of Delaware's Ocean Information Center.

Last reported at 2019-Mar-19 01:00 UTC. Time now 2019-Mar-19 01:32 UTC.
Position N 32°36' W 017°00'.

Length 60 m; beam 11.4 m; draft 4.1 m.

Type: Ship. MMSI: 211204360.

Wind from 100 at 13 knots

Barometer 1024.2 mb
Air temperature 16.5 ° C
Water temperature 19.0 ° C

Date/timePositionNaut miles runAvg speedWind from/ knotsBaromVisibWave heightAir tempDewpointWater temp
2019-Mar-19 01:00N 32°36' W 017°00'5 5.1 100 / 131024.2 16.5 19.0
2019-Mar-19 00:00N 32°36' W 016°54'5 5.1 050 / 281024.7 15.7 18.6
2019-Mar-18 23:00N 32°36' W 016°48'0 0.0 030 / 251025.8 15.9 18.6
2019-Mar-18 22:00N 32°36' W 016°48'8 7.8 030 / 251025.6 16.0 18.4
2019-Mar-18 21:00N 32°42' W 016°42'0 0.0 030 / 221025.7 16.0 18.4
2019-Mar-18 20:00N 32°42' W 016°42'5 5.0 030 / 191025.5 16.4 18.5
2019-Mar-18 19:00N 32°42' W 016°36'0 0.0 050 / 231024.9 16.5 18.4
2019-Mar-18 18:00N 32°42' W 016°36'0 0.0 060 / 291024.8 16.7 18.5
2019-Mar-18 17:00N 32°42' W 016°36'6 6.0 060 / 241024.2 16.4 18.4
2019-Mar-18 16:00N 32°36' W 016°36'0 0.0 070 / 231024.4 16.2 18.7
2019-Mar-18 15:00N 32°36' W 016°36'8 7.8 050 / 261024.6 15.9 18.7
2019-Mar-18 14:00N 32°30' W 016°30'6 6.0 050 / 141024.7 17.4 18.5
2019-Mar-18 13:00N 32°24' W 016°30'0 0.0 030 / 201024.9 17.0 18.6
2019-Mar-18 12:00N 32°24' W 016°30'8 7.9 050 / 261025.2 17.4 18.4
2019-Mar-18 11:00N 32°18' W 016°24'0 0.0 050 / 241025.3 17.0 18.4
2019-Mar-18 10:00N 32°18' W 016°24'5 5.1 030 / 231024.8 16.7 18.4
2019-Mar-18 09:00N 32°18' W 016°30'1211.8 030 / 231024.2 16.9 18.4
2019-Mar-18 08:00N 32°24' W 016°42'0 0.0 020 / 241023.5 16.9 18.6
2019-Mar-18 07:00N 32°24' W 016°42'0 0.0 030 / 211023.8 16.7 18.7
2019-Mar-18 06:00N 32°24' W 016°42'0 0.0 040 / 181023.9 16.7 18.7
2019-Mar-18 05:00N 32°24' W 016°42'0 0.0 030 / 191024.1 16.7 18.7
2019-Mar-18 04:00N 32°24' W 016°42'5 5.1 010 / 211024.1 16.9 18.7
2019-Mar-18 03:00N 32°24' W 016°48'1211.8 040 / 221024.5 16.9 18.6
2019-Mar-18 02:00N 32°30' W 017°00'0 0.0 060 / 221024.8 17.2 18.5
2019-Mar-18 01:00N 32°30' W 017°00'5 5.1 080 / 151025.2 17.7 18.5
2019-Mar-18 00:00N 32°30' W 017°06'6 6.0 050 / 91025.3 17.5 18.8
2019-Mar-17 23:00N 32°36' W 017°06'5 5.1 150 / 71025.3 17.9 19.4
2019-Mar-17 22:00N 32°36' W 017°12'0 0.0 230 / 81025.1 17.9 18.9
2019-Mar-17 21:00N 32°36' W 017°12'0 0.0 250 / 71024.5 17.9 19.0
2019-Mar-17 20:00N 32°36' W 017°12'1010.1 220 / 81023.8 17.9 19.0
2019-Mar-17 19:00N 32°36' W 017°24'8 7.8 180 / 41023.4 17.9 18.8
2019-Mar-17 18:00N 32°42' W 017°30'0 0.0 030 / 271023.0 17.4 18.7
2019-Mar-17 17:00N 32°42' W 017°30'5 5.0 030 / 271022.7 17.2 18.6
2019-Mar-17 16:00N 32°42' W 017°36'0 0.0 040 / 231023.9 17.2 18.5
2019-Mar-17 15:00N 32°42' W 017°36'0 0.0 050 / 231024.6 17.2 18.5
2019-Mar-17 14:00N 32°42' W 017°36'0 0.0 050 / 221025.4 17.2 18.5
2019-Mar-17 13:00N 32°42' W 017°36'6 6.0 050 / 231025.8 17.2 18.5
2019-Mar-17 12:00N 32°36' W 017°36'8 7.8 040 / 271025.7 17.4 18.8
2019-Mar-17 11:00N 32°30' W 017°30'8 7.9 050 / 151025.6 18.4 18.8
2019-Mar-17 10:00N 32°24' W 017°24'6 6.0 290 / 21025.5 17.7 18.7
2019-Mar-17 09:00N 32°18' W 017°24'8 7.9 150 / 51025.0 17.9 18.7
2019-Mar-17 08:00N 32°12' W 017°18'6 6.0 060 / 81024.3 17.2 18.7
2019-Mar-17 07:00N 32°06' W 017°18'8 7.9 010 / 91023.9 17.2 18.5
2019-Mar-17 06:00N 32°00' W 017°12'8 7.9 040 / 101023.3 17.4 18.7
2019-Mar-17 05:00N 31°54' W 017°06'6 6.0 040 / 151023.1 17.4 18.7
2019-Mar-17 04:00N 31°48' W 017°06'8 7.9 040 / 181022.6 17.4 18.8
2019-Mar-17 03:00N 31°42' W 017°00'6 6.0 050 / 171022.6 17.4 18.8
2019-Mar-17 02:00N 31°36' W 017°00'8 7.9 040 / 151023.2 17.4 18.8
2019-Mar-17 01:00N 31°30' W 016°54'8 7.9 040 / 141023.6 17.4 18.9
2019-Mar-17 00:00N 31°24' W 016°48'6 6.0 040 / 161023.8 17.4 18.9
2019-Mar-16 23:00N 31°18' W 016°48'1313.1 040 / 191023.6 17.5 18.9
2019-Mar-16 22:00N 31°06' W 016°42'8 7.9 030 / 171023.6 17.5 18.9
2019-Mar-16 21:00N 31°00' W 016°36'6 6.0 030 / 191023.1 17.5 19.0
2019-Mar-16 20:00N 30°54' W 016°36'8 7.9 030 / 181022.5 17.9 18.9
2019-Mar-16 19:00N 30°48' W 016°30'0 0.0 020 / 181022.0 17.7 18.7
2019-Mar-16 18:00N 30°48' W 016°30'8 7.9 020 / 181021.6 18.0 19.0
2019-Mar-16 17:00N 30°42' W 016°24'6 6.0 030 / 171021.3 18.0 19.0
2019-Mar-16 16:00N 30°36' W 016°24'8 7.9 020 / 171021.3 17.7 19.0
2019-Mar-16 15:00N 30°30' W 016°18'6 6.0 020 / 151021.2 17.7 18.9
2019-Mar-16 14:00N 30°24' W 016°18'8 7.9 010 / 141021.7 17.5 18.9
2019-Mar-16 13:00N 30°18' W 016°12'6 6.0 010 / 131022.2 17.5 18.9
2019-Mar-16 12:00N 30°12' W 016°12'8 7.9 020 / 131022.4 17.2 18.9
2019-Mar-16 11:00N 30°06' W 016°06'0 0.0 020 / 131022.4 17.4 18.9
2019-Mar-16 10:00N 30°06' W 016°06'6 6.0 030 / 131022.5 17.4 18.8
2019-Mar-16 09:00N 30°00' W 016°06'8 7.9 040 / 101022.2 17.0 18.7
2019-Mar-16 08:00N 29°54' W 016°00'0 0.0 050 / 111022.1 17.0 18.9
2019-Mar-16 07:00N 29°54' W 016°00'8 7.9 040 / 131021.8 16.9 18.9
2019-Mar-16 06:00N 29°48' W 015°54'6 6.0 060 / 121021.3 16.9 18.9
2019-Mar-16 05:00N 29°42' W 015°54'8 7.9 050 / 131021.0 17.2 19.0
2019-Mar-16 04:00N 29°36' W 015°48'8 8.0 050 / 161021.1 17.2 19.1
2019-Mar-16 03:00N 29°30' W 015°42'6 6.0 040 / 161021.2 17.2 19.1
2019-Mar-16 02:00N 29°24' W 015°42'5 5.2 030 / 171021.6 17.2 19.1
2019-Mar-16 01:00N 29°24' W 015°36'6 6.0 030 / 161022.0 17.4 19.3
2019-Mar-16 00:00N 29°18' W 015°36'8 8.0 040 / 171022.3 17.4 19.2
2019-Mar-15 23:00N 29°12' W 015°30'0 0.0 030 / 171022.5 17.4 19.1
2019-Mar-15 22:00N 29°12' W 015°30'0 0.0 030 / 151022.5 17.4 19.2
2019-Mar-15 21:00N 29°12' W 015°30'0 0.0 030 / 151022.0 17.7 19.2
2019-Mar-15 20:00N 29°12' W 015°30'0 0.0 030 / 121021.3 17.7 19.2
2019-Mar-15 19:00N 29°12' W 015°30'1212.0 040 / 131020.9 17.7 19.2
2019-Mar-15 18:00N 29°00' W 015°30'6 6.0 050 / 121020.9 18.2 19.4
2019-Mar-15 17:00N 28°54' W 015°30'4 6.9 060 / 151020.6 18.4 19.4
2019-Mar-15 16:28N 28°51' W 015°28'4 9.2
2019-Mar-15 16:00N 28°48' W 015°24'6 6.0 060 / 161020.7 18.2 19.4
2019-Mar-15 15:00N 28°42' W 015°24'6 6.0 060 / 171021.1 18.0 19.3
2019-Mar-15 14:00N 28°36' W 015°24'469.7 060 / 161021.5 17.9 19.2
2019-Mar-15 13:56N 28°32' W 015°26'9 9.0
2019-Mar-15 13:00N 28°24' W 015°24'3 4.6 070 / 161022.1 17.9 19.2
2019-Mar-15 12:23N 28°21' W 015°24'3 8.2
2019-Mar-15 12:00N 28°18' W 015°24'6 6.0 060 / 131022.9 17.7 19.0
2019-Mar-15 11:00N 28°12' W 015°24'6 6.0 050 / 71023.2 17.5 18.9
2019-Mar-15 10:00N 28°06' W 015°24'6 6.0 040 / 61023.4 17.4 18.9
2019-Mar-15 09:00N 28°12' W 015°24'0 0.0 060 / 31023.3 17.9 19.4
2019-Mar-15 08:00N 28°12' W 015°24'0 0.0 010 / 31022.9 17.2 19.4
2019-Mar-15 07:00N 28°12' W 015°24'0 0.0 360 / 41022.7 17.0 19.4
2019-Mar-15 06:00N 28°12' W 015°24'0 0.0 350 / 31022.2 17.0 19.4
2019-Mar-15 05:00N 28°12' W 015°24'0 0.0 350 / 31021.9 17.0 19.4
2019-Mar-15 04:00N 28°12' W 015°24'0 0.0 360 / 41022.1 17.2 19.4
2019-Mar-15 03:00N 28°12' W 015°24'0 0.0 020 / 41022.4 17.5 19.4
2019-Mar-15 02:00N 28°12' W 015°24'0 0.0 1022.7 17.5 19.4
2019-Mar-15 01:00N 28°12' W 015°24'0 0.0 010 / 41023.4 17.7 19.4
2019-Mar-15 00:00N 28°12' W 015°24'0 0.0 030 / 21023.8 17.9 19.4
2019-Mar-14 23:00N 28°12' W 015°24'0 0.0 020 / 31024.0 17.9 19.4
2019-Mar-14 22:00N 28°12' W 015°24'0 0.0 020 / 21023.9 17.9 19.4
2019-Mar-14 21:00N 28°12' W 015°24'0 0.0 040 / 11023.2 17.9 19.4
2019-Mar-14 20:00N 28°12' W 015°24'0 0.0 050 / 21022.7 17.9 19.4
2019-Mar-14 19:00N 28°12' W 015°24'0 0.0 060 / 31022.3 18.0 19.5
2019-Mar-14 18:00N 28°12' W 015°24'0 0.0 050 / 31022.3 18.4 19.6
2019-Mar-14 17:00N 28°12' W 015°24'0 0.0 050 / 31022.3 18.5 19.4
2019-Mar-14 16:00N 28°12' W 015°24'0 0.0 080 / 31022.4 18.7 19.5
2019-Mar-14 15:00N 28°12' W 015°24'0 0.0 050 / 41022.8 19.0 19.4
2019-Mar-14 14:00N 28°12' W 015°24'13 6.6 060 / 31023.2 18.7 19.5
2019-Mar-14 12:00N 28°00' W 015°18'0 0.0 030 / 171024.4 17.7 18.7
2019-Mar-14 11:00N 28°00' W 015°18'6 6.0 030 / 171024.7 17.9 18.7
2019-Mar-14 10:00N 27°54' W 015°18'8 8.0 020 / 211024.3 17.9 18.8
2019-Mar-14 09:00N 27°48' W 015°24'0 0.0 030 / 261023.3 18.0 18.7
2019-Mar-14 08:00N 27°48' W 015°24'6 6.0 030 / 291022.4 17.7 18.6
2019-Mar-14 07:00N 27°42' W 015°24'5 5.3 040 / 281021.7 17.9 18.7
2019-Mar-14 06:00N 27°42' W 015°30'5 5.3 040 / 221021.3 17.7 18.7
2019-Mar-14 05:00N 27°42' W 015°36'5 5.3 060 / 61021.5 17.7 19.1
2019-Mar-14 04:00N 27°42' W 015°42'0 0.0 060 / 61021.6 17.5 19.3
2019-Mar-14 03:00N 27°42' W 015°42'0 0.0 290 / 21022.0 18.2 19.3
2019-Mar-14 02:00N 27°42' W 015°42'8 8.0 220 / 101022.7 18.4 19.3
2019-Mar-14 01:00N 27°48' W 015°48'0 0.0 200 / 91023.2 18.4 19.2
2019-Mar-14 00:00N 27°48' W 015°48'8 8.0 230 / 31023.5 18.4 19.6
2019-Mar-13 23:00N 27°54' W 015°54'0 0.0 220 / 21023.9 18.5 19.3
2019-Mar-13 22:00N 27°54' W 015°54'6 6.0 030 / 261023.7 18.4 19.4
2019-Mar-13 21:00N 28°00' W 015°54'5 5.3 030 / 271023.7 18.4 19.0
2019-Mar-13 20:00N 28°00' W 015°48'6 6.0 040 / 241024.0 18.2 18.9
2019-Mar-13 19:00N 28°06' W 015°48'213.2 050 / 221023.9 18.2 18.8
2019-Mar-13 18:51N 28°06' W 015°50'2 5.1
2019-Mar-13 18:28N 28°08' W 015°51'510.0
2019-Mar-13 18:00N 28°12' W 015°54'0 0.0 040 / 201024.3 18.4 18.8
2019-Mar-13 17:00N 28°12' W 015°54'8 8.0 040 / 181024.4 18.4 19.0
2019-Mar-13 16:00N 28°18' W 016°00'2 7.9 040 / 191024.5 18.2 19.0
2019-Mar-13 15:45N 28°19' W 015°58'2 2.6
2019-Mar-13 15:00N 28°18' W 016°00'0 0.0 040 / 181025.0 18.2 19.1
2019-Mar-13 14:00N 28°18' W 016°00'2 2.1 030 / 191025.7 18.2 19.0
2019-Mar-13 13:12N 28°19' W 015°59'2 8.3
2019-Mar-13 13:00N 28°18' W 016°00'6 6.0 030 / 181026.6 17.9 19.0
2019-Mar-13 12:00N 28°24' W 016°00'1 5.2 020 / 181027.4 17.9 18.9
2019-Mar-13 11:45N 28°23' W 016°01'1 2.6
2019-Mar-13 11:29N 28°24' W 016°01'3 6.0
2019-Mar-13 11:00N 28°26' W 016°03'3227.8
2019-Mar-13 11:00N 28°24' W 016°00'713.5 040 / 211027.8 17.9 18.9
2019-Mar-13 10:30N 28°29' W 016°05'3 5.6
2019-Mar-13 10:00N 28°31' W 016°07'189.3
2019-Mar-13 10:00N 28°30' W 016°06'1 2.2 030 / 201028.2 17.7 18.9
2019-Mar-13 09:30N 28°30' W 016°07'1 2.0
2019-Mar-13 09:00N 28°29' W 016°07'181.1
2019-Mar-13 09:00N 28°30' W 016°06'4 7.5 020 / 211027.5 17.7 18.9
2019-Mar-13 08:30N 28°28' W 016°09'3 5.3
2019-Mar-13 08:01N 28°26' W 016°12'2138.1
2019-Mar-13 08:00N 28°24' W 016°12'2 3.9 040 / 131026.8 17.7 18.8
2019-Mar-13 07:30N 28°25' W 016°14'0 0.0
2019-Mar-13 07:00N 28°25' W 016°14'2114.3
2019-Mar-13 07:00N 28°24' W 016°12'4 8.3 030 / 51026.1 17.7 18.9
2019-Mar-13 06:30N 28°23' W 016°16'3 5.9
2019-Mar-13 06:00N 28°23' W 016°20'2259.3
2019-Mar-13 06:00N 28°24' W 016°18'5 9.4 250 / 31025.4 17.4 19.2
2019-Mar-13 05:30N 28°20' W 016°21'1 2.2
2019-Mar-13 05:00N 28°19' W 016°20'2142.5
2019-Mar-13 05:00N 28°18' W 016°18'2 4.7 1025.1 17.2 18.9
2019-Mar-13 04:30N 28°19' W 016°20'2 4.5
2019-Mar-13 04:00N 28°18' W 016°18'28236.7 070 / 171025.2 17.9 19.0
2019-Mar-13 03:59N 28°18' W 016°21'7 6.8
2019-Mar-13 03:00N 28°12' W 016°24'0 0.0 030 / 161026.2 17.9 18.9
2019-Mar-13 02:00N 28°12' W 016°24'6 6.0 050 / 261026.8 17.9 18.9
2019-Mar-13 01:00N 28°06' W 016°24'8 8.0 050 / 261027.1 17.7 19.1
2019-Mar-13 00:00N 28°00' W 016°30'5 5.3 050 / 261027.4 17.9 19.1
2019-Mar-12 23:00N 28°00' W 016°36'0 0.0 050 / 151027.7 17.4 19.1
2019-Mar-12 22:00N 28°00' W 016°36'5 5.3 070 / 171027.8 17.7 19.1
2019-Mar-12 21:00N 28°00' W 016°42'0 0.0 100 / 81027.3 18.4 20.0
2019-Mar-12 20:00N 28°00' W 016°42'8 8.0 210 / 131026.6 18.9 20.0
2019-Mar-12 19:00N 28°06' W 016°48'6 6.0 190 / 111026.2 18.9 19.8
2019-Mar-12 18:00N 28°12' W 016°48'0 0.0 180 / 121025.9 18.9 19.9
2019-Mar-12 17:00N 28°12' W 016°48'8 8.0 170 / 141025.8 18.9 20.0
2019-Mar-12 16:00N 28°18' W 016°54'0 0.0 170 / 91026.0 19.7 20.7
2019-Mar-12 15:00N 28°18' W 016°54'0 0.0 030 / 171026.0 19.7 20.6
2019-Mar-12 14:00N 28°18' W 016°54'5 5.3 040 / 291026.5 18.2 20.0
2019-Mar-12 13:00N 28°18' W 017°00'0 0.0 030 / 271027.0 18.0 19.4
2019-Mar-12 12:00N 28°18' W 017°00'6 6.0 020 / 251027.9 18.0 19.4
2019-Mar-12 11:00N 28°12' W 017°00'0 0.0 010 / 231028.1 18.0 19.1
2019-Mar-12 10:00N 28°12' W 017°00'8 8.0 340 / 241027.7 17.7 19.1
2019-Mar-12 09:00N 28°06' W 017°06'0 0.0 340 / 301026.9 17.9 19.1
2019-Mar-12 08:00N 28°06' W 017°06'6 6.0 360 / 241025.5 18.2 19.1
2019-Mar-12 07:00N 28°00' W 017°06'5 5.3 040 / 21025.5 18.2 19.7
2019-Mar-12 06:00N 28°00' W 017°12'5 6.0 280 / 91025.2 18.2 19.7
2019-Mar-12 05:11N 28°01' W 017°17'1 5.2
2019-Mar-12 05:00N 28°01' W 017°18'198.6
2019-Mar-12 05:00N 28°00' W 017°18'2 4.9 1025.2 18.2 19.9
2019-Mar-12 04:30N 28°02' W 017°19'1 1.6
2019-Mar-12 04:00N 28°03' W 017°19'3204.6
2019-Mar-12 04:00N 28°06' W 017°18'3 6.0 130 / 41025.2 18.4 20.0
2019-Mar-12 03:30N 28°05' W 017°21'3 5.9
2019-Mar-12 03:00N 28°06' W 017°24'2365.1 040 / 111025.7 19.2 19.8
2019-Mar-12 02:59N 28°07' W 017°22'6 5.7
2019-Mar-12 02:00N 28°12' W 017°24'316.1 030 / 311026.0 17.9 19.5
2019-Mar-12 01:49N 28°09' W 017°24'1 4.4
2019-Mar-12 01:30N 28°08' W 017°25'2 4.8
2019-Mar-12 01:00N 28°06' W 017°24'3254.8 040 / 271026.7 17.9 19.6
2019-Mar-12 00:59N 28°07' W 017°27'3 2.8
2019-Mar-12 00:00N 28°06' W 017°30'8 8.0 040 / 251027.2 18.0 19.4
2019-Mar-11 23:00N 28°00' W 017°36'0 0.0 030 / 271027.1 18.2 19.4
2019-Mar-11 22:00N 28°00' W 017°36'0 0.0 030 / 281026.8 18.2 19.4
2019-Mar-11 21:00N 28°00' W 017°36'0 0.0 030 / 251026.5 18.4 19.5
2019-Mar-11 20:00N 28°00' W 017°36'0 0.0 040 / 261026.0 18.5 19.5
2019-Mar-11 19:00N 28°00' W 017°36'8 8.0 040 / 261025.5 18.5 19.4
2019-Mar-11 18:00N 27°54' W 017°42'3 8.1 040 / 251024.9 18.7 19.5
2019-Mar-11 17:39N 27°53' W 017°45'1 4.9
2019-Mar-11 17:28N 27°53' W 017°46'2 4.9
2019-Mar-11 17:00N 27°54' W 017°48'6 8.6 040 / 201025.3 18.7 19.5
2019-Mar-11 16:16N 27°48' W 017°51'2 8.7
2019-Mar-11 16:00N 27°48' W 017°54'2 6.6 020 / 221025.2 18.9 19.6
2019-Mar-11 15:41N 27°46' W 017°54'2 3.1
2019-Mar-11 15:00N 27°48' W 017°54'6 6.0 040 / 211025.2 18.9 19.5
2019-Mar-11 14:00N 27°42' W 017°54'5 5.3 040 / 231025.6 18.9 19.6
2019-Mar-11 13:00N 27°42' W 018°00'8 8.0 040 / 281026.4 19.0 19.5
2019-Mar-11 12:00N 27°36' W 017°54'5 5.3 030 / 251027.1 18.9 19.4
2019-Mar-11 11:00N 27°36' W 017°48'5 5.3 030 / 231027.3 19.0 19.5
2019-Mar-11 10:00N 27°36' W 017°42'5 5.3 020 / 211027.1 19.0 19.5
2019-Mar-11 09:00N 27°36' W 017°36'8 8.0 020 / 221026.2 19.2 19.7
2019-Mar-11 08:00N 27°30' W 017°30'5 5.3 360 / 101025.4 19.4 19.9
2019-Mar-11 07:00N 27°30' W 017°24'1110.6 270 / 51024.6 18.9 19.5
2019-Mar-11 06:00N 27°30' W 017°12'0 0.0 050 / 111024.0 19.7 19.8
2019-Mar-11 05:00N 27°30' W 017°12'1212.2 060 / 171023.9 18.9 19.6
2019-Mar-11 04:00N 27°24' W 017°00'5 5.3 050 / 261024.2 18.4 18.8
2019-Mar-11 03:00N 27°24' W 016°54'1110.7 050 / 221024.6 18.7 18.9
2019-Mar-11 02:00N 27°24' W 016°42'6 6.0 040 / 261025.0 18.4 18.7
2019-Mar-11 01:00N 27°18' W 016°42'0 0.0 020 / 231025.4 18.4 18.7
2019-Mar-11 00:00N 27°18' W 016°42'8 8.0 050 / 291025.6 18.4 18.7
2019-Mar-10 23:00N 27°12' W 016°36'6 6.0 040 / 271025.4 18.4 18.7
2019-Mar-10 22:00N 27°06' W 016°36'13 6.6 030 / 271025.4 18.5 18.7
2019-Mar-10 20:00N 26°54' W 016°30'8 8.0 030 / 221024.2 18.7 18.8
2019-Mar-10 19:00N 26°48' W 016°24'8 8.0 040 / 161023.5 18.9 19.3
2019-Mar-10 18:00N 26°42' W 016°30'6 6.0 050 / 161023.3 19.2 19.2
2019-Mar-10 17:00N 26°36' W 016°30'1212.0 050 / 211023.4 19.2 19.3
2019-Mar-10 16:00N 26°24' W 016°30'6 6.0 060 / 211023.4 19.0 19.3
2019-Mar-10 15:00N 26°18' W 016°30'6 6.0 060 / 221023.4 18.9 19.2
2019-Mar-10 14:00N 26°12' W 016°30'6 6.0 060 / 251023.8 18.9 19.2
2019-Mar-10 13:00N 26°06' W 016°30'5 5.4 060 / 231024.2 18.4 19.2
2019-Mar-10 12:00N 26°06' W 016°36'6 6.0 070 / 261024.6 18.4 19.1
2019-Mar-10 11:00N 26°00' W 016°36'8 8.1 070 / 261024.8 18.4 19.0
2019-Mar-10 10:00N 25°54' W 016°42'6 6.0 070 / 301024.4 18.4 19.1
2019-Mar-10 09:00N 25°48' W 016°42'5 5.4 060 / 291023.6 18.4 18.9
2019-Mar-10 08:00N 25°48' W 016°48'8 8.1 060 / 261022.8 18.0 18.8
2019-Mar-10 07:00N 25°42' W 016°54'0 0.0 060 / 261022.0 18.0 18.8
2019-Mar-10 06:00N 25°42' W 016°54'8 8.1 070 / 281021.4 18.2 19.0
2019-Mar-10 05:00N 25°36' W 017°00'6 6.0 060 / 281021.0 18.2 19.0
2019-Mar-10 04:00N 25°30' W 017°00'5 5.4 050 / 261021.1 18.4 18.9
2019-Mar-10 03:00N 25°30' W 017°06'6 6.0 060 / 271021.4 18.2 19.0
2019-Mar-10 02:00N 25°24' W 017°06'5 5.4 050 / 271021.7 18.2 19.2
2019-Mar-10 01:00N 25°24' W 017°12'6 6.0 050 / 281021.8 18.2 19.4
2019-Mar-10 00:00N 25°18' W 017°12'8 8.1 060 / 281022.2 18.4 19.7
2019-Mar-09 23:00N 25°12' W 017°18'5 5.4 050 / 281022.4 18.4 19.7
2019-Mar-09 22:00N 25°12' W 017°24'6 6.0 050 / 311021.9 18.7 19.6
2019-Mar-09 21:00N 25°06' W 017°24'5 5.4 050 / 281021.8 18.7 19.5
2019-Mar-09 20:00N 25°06' W 017°30'6 6.0 050 / 261021.4 18.5 19.4
2019-Mar-09 19:00N 25°00' W 017°30'8 8.1 050 / 261020.8 18.7 19.4
2019-Mar-09 18:00N 24°54' W 017°36'5 5.4 050 / 261020.2 18.7 19.5
2019-Mar-09 17:00N 24°54' W 017°42'6 6.0 050 / 271020.1 18.7 19.4
2019-Mar-09 16:00N 24°48' W 017°42'8 8.1 050 / 241020.6 18.7 19.0
2019-Mar-09 15:00N 24°42' W 017°48'8 8.1 050 / 251021.0 18.5 19.1
2019-Mar-09 14:00N 24°36' W 017°54'0 0.0 060 / 241021.8 18.7 19.4
2019-Mar-09 13:00N 24°36' W 017°54'8 8.1 060 / 271022.6 18.5 19.9
2019-Mar-09 12:00N 24°30' W 018°00'8 8.1 050 / 261023.0 18.9 19.8
2019-Mar-09 11:00N 24°24' W 018°06'0 0.0 060 / 261023.2 18.7 19.5
2019-Mar-09 10:00N 24°24' W 018°06'8 8.1 040 / 281023.0 18.9 19.6
2019-Mar-09 09:00N 24°18' W 018°12'8 8.1 060 / 281022.7 18.7 19.9
2019-Mar-09 08:00N 24°12' W 018°18'6 6.0 050 / 271022.1 18.7 20.0
2019-Mar-09 07:00N 24°06' W 018°18'5 5.5 050 / 281021.6 18.5 19.9
2019-Mar-09 06:00N 24°06' W 018°24'8 8.1 060 / 241021.1 18.7 19.9
2019-Mar-09 05:00N 24°00' W 018°30'6 6.0 050 / 221020.8 18.9 19.8
2019-Mar-09 04:00N 23°54' W 018°30'8 8.1 050 / 211021.2 18.9 19.6
2019-Mar-09 03:00N 23°48' W 018°36'8 8.1 050 / 241021.5 18.9 19.6
2019-Mar-09 02:00N 23°42' W 018°42'8 8.1 060 / 191022.3 19.2 19.1
2019-Mar-09 01:00N 23°36' W 018°48'   050 / 241022.3 19.0 19.2
Track history (hours):
 
Tides and Currents Weather Stations Pressure Air Temp Water Temp Dewpoint Dewpoint Depression Visibility Wind Speed Wind Dir Waves Ship Positions

Oceanographic research ship Poseidon (Germany)

Detailed information on ship capabilities available from University of Delaware's Ocean Information Center.

Last reported at 2019-Mar-19 01:00 UTC. Time now 2019-Mar-19 01:32 UTC.
Position N 32°36' W 017°00'.

Length 60 m; beam 11.4 m; draft 4.1 m.

Type: Ship. MMSI: 211204360.

Wind from 100 at 13 knots

Barometer 1024.2 mb
Air temperature 16.5 ° C
Water temperature 19.0 ° C

Date/timePositionNaut miles runAvg speedWind from/ knotsBaromVisibWave heightAir tempDewpointWater temp
2019-Mar-19 01:00N 32°36' W 017°00'5 5.1 100 / 131024.2 16.5 19.0
2019-Mar-19 00:00N 32°36' W 016°54'5 5.1 050 / 281024.7 15.7 18.6
2019-Mar-18 23:00N 32°36' W 016°48'0 0.0 030 / 251025.8 15.9 18.6
2019-Mar-18 22:00N 32°36' W 016°48'8 7.8 030 / 251025.6 16.0 18.4
2019-Mar-18 21:00N 32°42' W 016°42'0 0.0 030 / 221025.7 16.0 18.4
2019-Mar-18 20:00N 32°42' W 016°42'5 5.0 030 / 191025.5 16.4 18.5
2019-Mar-18 19:00N 32°42' W 016°36'0 0.0 050 / 231024.9 16.5 18.4
2019-Mar-18 18:00N 32°42' W 016°36'0 0.0 060 / 291024.8 16.7 18.5
2019-Mar-18 17:00N 32°42' W 016°36'6 6.0 060 / 241024.2 16.4 18.4
2019-Mar-18 16:00N 32°36' W 016°36'0 0.0 070 / 231024.4 16.2 18.7
2019-Mar-18 15:00N 32°36' W 016°36'8 7.8 050 / 261024.6 15.9 18.7
2019-Mar-18 14:00N 32°30' W 016°30'6 6.0 050 / 141024.7 17.4 18.5
2019-Mar-18 13:00N 32°24' W 016°30'0 0.0 030 / 201024.9 17.0 18.6
2019-Mar-18 12:00N 32°24' W 016°30'8 7.9 050 / 261025.2 17.4 18.4
2019-Mar-18 11:00N 32°18' W 016°24'0 0.0 050 / 241025.3 17.0 18.4
2019-Mar-18 10:00N 32°18' W 016°24'5 5.1 030 / 231024.8 16.7 18.4
2019-Mar-18 09:00N 32°18' W 016°30'1211.8 030 / 231024.2 16.9 18.4
2019-Mar-18 08:00N 32°24' W 016°42'0 0.0 020 / 241023.5 16.9 18.6
2019-Mar-18 07:00N 32°24' W 016°42'0 0.0 030 / 211023.8 16.7 18.7
2019-Mar-18 06:00N 32°24' W 016°42'0 0.0 040 / 181023.9 16.7 18.7
2019-Mar-18 05:00N 32°24' W 016°42'0 0.0 030 / 191024.1 16.7 18.7
2019-Mar-18 04:00N 32°24' W 016°42'5 5.1 010 / 211024.1 16.9 18.7
2019-Mar-18 03:00N 32°24' W 016°48'1211.8 040 / 221024.5 16.9 18.6
2019-Mar-18 02:00N 32°30' W 017°00'0 0.0 060 / 221024.8 17.2 18.5
2019-Mar-18 01:00N 32°30' W 017°00'5 5.1 080 / 151025.2 17.7 18.5
2019-Mar-18 00:00N 32°30' W 017°06'6 6.0 050 / 91025.3 17.5 18.8
2019-Mar-17 23:00N 32°36' W 017°06'5 5.1 150 / 71025.3 17.9 19.4
2019-Mar-17 22:00N 32°36' W 017°12'0 0.0 230 / 81025.1 17.9 18.9
2019-Mar-17 21:00N 32°36' W 017°12'0 0.0 250 / 71024.5 17.9 19.0
2019-Mar-17 20:00N 32°36' W 017°12'1010.1 220 / 81023.8 17.9 19.0
2019-Mar-17 19:00N 32°36' W 017°24'8 7.8 180 / 41023.4 17.9 18.8
2019-Mar-17 18:00N 32°42' W 017°30'0 0.0 030 / 271023.0 17.4 18.7
2019-Mar-17 17:00N 32°42' W 017°30'5 5.0 030 / 271022.7 17.2 18.6
2019-Mar-17 16:00N 32°42' W 017°36'0 0.0 040 / 231023.9 17.2 18.5
2019-Mar-17 15:00N 32°42' W 017°36'0 0.0 050 / 231024.6 17.2 18.5
2019-Mar-17 14:00N 32°42' W 017°36'0 0.0 050 / 221025.4 17.2 18.5
2019-Mar-17 13:00N 32°42' W 017°36'6 6.0 050 / 231025.8 17.2 18.5
2019-Mar-17 12:00N 32°36' W 017°36'8 7.8 040 / 271025.7 17.4 18.8
2019-Mar-17 11:00N 32°30' W 017°30'8 7.9 050 / 151025.6 18.4 18.8
2019-Mar-17 10:00N 32°24' W 017°24'6 6.0 290 / 21025.5 17.7 18.7
2019-Mar-17 09:00N 32°18' W 017°24'8 7.9 150 / 51025.0 17.9 18.7
2019-Mar-17 08:00N 32°12' W 017°18'6 6.0 060 / 81024.3 17.2 18.7
2019-Mar-17 07:00N 32°06' W 017°18'8 7.9 010 / 91023.9 17.2 18.5
2019-Mar-17 06:00N 32°00' W 017°12'8 7.9 040 / 101023.3 17.4 18.7
2019-Mar-17 05:00N 31°54' W 017°06'6 6.0 040 / 151023.1 17.4 18.7
2019-Mar-17 04:00N 31°48' W 017°06'8 7.9 040 / 181022.6 17.4 18.8
2019-Mar-17 03:00N 31°42' W 017°00'6 6.0 050 / 171022.6 17.4 18.8
2019-Mar-17 02:00N 31°36' W 017°00'8 7.9 040 / 151023.2 17.4 18.8
2019-Mar-17 01:00N 31°30' W 016°54'8 7.9 040 / 141023.6 17.4 18.9
2019-Mar-17 00:00N 31°24' W 016°48'6 6.0 040 / 161023.8 17.4 18.9
2019-Mar-16 23:00N 31°18' W 016°48'1313.1 040 / 191023.6 17.5 18.9
2019-Mar-16 22:00N 31°06' W 016°42'8 7.9 030 / 171023.6 17.5 18.9
2019-Mar-16 21:00N 31°00' W 016°36'6 6.0 030 / 191023.1 17.5 19.0
2019-Mar-16 20:00N 30°54' W 016°36'8 7.9 030 / 181022.5 17.9 18.9
2019-Mar-16 19:00N 30°48' W 016°30'0 0.0 020 / 181022.0 17.7 18.7
2019-Mar-16 18:00N 30°48' W 016°30'8 7.9 020 / 181021.6 18.0 19.0
2019-Mar-16 17:00N 30°42' W 016°24'6 6.0 030 / 171021.3 18.0 19.0
2019-Mar-16 16:00N 30°36' W 016°24'8 7.9 020 / 171021.3 17.7 19.0
2019-Mar-16 15:00N 30°30' W 016°18'6 6.0 020 / 151021.2 17.7 18.9
2019-Mar-16 14:00N 30°24' W 016°18'8 7.9 010 / 141021.7 17.5 18.9
2019-Mar-16 13:00N 30°18' W 016°12'6 6.0 010 / 131022.2 17.5 18.9
2019-Mar-16 12:00N 30°12' W 016°12'8 7.9 020 / 131022.4 17.2 18.9
2019-Mar-16 11:00N 30°06' W 016°06'0 0.0 020 / 131022.4 17.4 18.9
2019-Mar-16 10:00N 30°06' W 016°06'6 6.0 030 / 131022.5 17.4 18.8
2019-Mar-16 09:00N 30°00' W 016°06'8 7.9 040 / 101022.2 17.0 18.7
2019-Mar-16 08:00N 29°54' W 016°00'0 0.0 050 / 111022.1 17.0 18.9
2019-Mar-16 07:00N 29°54' W 016°00'8 7.9 040 / 131021.8 16.9 18.9
2019-Mar-16 06:00N 29°48' W 015°54'6 6.0 060 / 121021.3 16.9 18.9
2019-Mar-16 05:00N 29°42' W 015°54'8 7.9 050 / 131021.0 17.2 19.0
2019-Mar-16 04:00N 29°36' W 015°48'8 8.0 050 / 161021.1 17.2 19.1
2019-Mar-16 03:00N 29°30' W 015°42'6 6.0 040 / 161021.2 17.2 19.1
2019-Mar-16 02:00N 29°24' W 015°42'5 5.2 030 / 171021.6 17.2 19.1
2019-Mar-16 01:00N 29°24' W 015°36'6 6.0 030 / 161022.0 17.4 19.3
2019-Mar-16 00:00N 29°18' W 015°36'8 8.0 040 / 171022.3 17.4 19.2
2019-Mar-15 23:00N 29°12' W 015°30'0 0.0 030 / 171022.5 17.4 19.1
2019-Mar-15 22:00N 29°12' W 015°30'0 0.0 030 / 151022.5 17.4 19.2
2019-Mar-15 21:00N 29°12' W 015°30'0 0.0 030 / 151022.0 17.7 19.2
2019-Mar-15 20:00N 29°12' W 015°30'0 0.0 030 / 121021.3 17.7 19.2
2019-Mar-15 19:00N 29°12' W 015°30'1212.0 040 / 131020.9 17.7 19.2
2019-Mar-15 18:00N 29°00' W 015°30'6 6.0 050 / 121020.9 18.2 19.4
2019-Mar-15 17:00N 28°54' W 015°30'4 6.9 060 / 151020.6 18.4 19.4
2019-Mar-15 16:28N 28°51' W 015°28'4 9.2
2019-Mar-15 16:00N 28°48' W 015°24'6 6.0 060 / 161020.7 18.2 19.4
2019-Mar-15 15:00N 28°42' W 015°24'6 6.0 060 / 171021.1 18.0 19.3
2019-Mar-15 14:00N 28°36' W 015°24'469.7 060 / 161021.5 17.9 19.2
2019-Mar-15 13:56N 28°32' W 015°26'9 9.0
2019-Mar-15 13:00N 28°24' W 015°24'3 4.6 070 / 161022.1 17.9 19.2
2019-Mar-15 12:23N 28°21' W 015°24'3 8.2
2019-Mar-15 12:00N 28°18' W 015°24'6 6.0 060 / 131022.9 17.7 19.0
2019-Mar-15 11:00N 28°12' W 015°24'6 6.0 050 / 71023.2 17.5 18.9
2019-Mar-15 10:00N 28°06' W 015°24'6 6.0 040 / 61023.4 17.4 18.9
2019-Mar-15 09:00N 28°12' W 015°24'0 0.0 060 / 31023.3 17.9 19.4
2019-Mar-15 08:00N 28°12' W 015°24'0 0.0 010 / 31022.9 17.2 19.4
2019-Mar-15 07:00N 28°12' W 015°24'0 0.0 360 / 41022.7 17.0 19.4
2019-Mar-15 06:00N 28°12' W 015°24'0 0.0 350 / 31022.2 17.0 19.4
2019-Mar-15 05:00N 28°12' W 015°24'0 0.0 350 / 31021.9 17.0 19.4
2019-Mar-15 04:00N 28°12' W 015°24'0 0.0 360 / 41022.1 17.2 19.4
2019-Mar-15 03:00N 28°12' W 015°24'0 0.0 020 / 41022.4 17.5 19.4
2019-Mar-15 02:00N 28°12' W 015°24'0 0.0 1022.7 17.5 19.4
2019-Mar-15 01:00N 28°12' W 015°24'0 0.0 010 / 41023.4 17.7 19.4
2019-Mar-15 00:00N 28°12' W 015°24'0 0.0 030 / 21023.8 17.9 19.4
2019-Mar-14 23:00N 28°12' W 015°24'0 0.0 020 / 31024.0 17.9 19.4
2019-Mar-14 22:00N 28°12' W 015°24'0 0.0 020 / 21023.9 17.9 19.4
2019-Mar-14 21:00N 28°12' W 015°24'0 0.0 040 / 11023.2 17.9 19.4
2019-Mar-14 20:00N 28°12' W 015°24'0 0.0 050 / 21022.7 17.9 19.4
2019-Mar-14 19:00N 28°12' W 015°24'0 0.0 060 / 31022.3 18.0 19.5
2019-Mar-14 18:00N 28°12' W 015°24'0 0.0 050 / 31022.3 18.4 19.6
2019-Mar-14 17:00N 28°12' W 015°24'0 0.0 050 / 31022.3 18.5 19.4
2019-Mar-14 16:00N 28°12' W 015°24'0 0.0 080 / 31022.4 18.7 19.5
2019-Mar-14 15:00N 28°12' W 015°24'0 0.0 050 / 41022.8 19.0 19.4
2019-Mar-14 14:00N 28°12' W 015°24'13 6.6 060 / 31023.2 18.7 19.5
2019-Mar-14 12:00N 28°00' W 015°18'0 0.0 030 / 171024.4 17.7 18.7
2019-Mar-14 11:00N 28°00' W 015°18'6 6.0 030 / 171024.7 17.9 18.7
2019-Mar-14 10:00N 27°54' W 015°18'8 8.0 020 / 211024.3 17.9 18.8
2019-Mar-14 09:00N 27°48' W 015°24'0 0.0 030 / 261023.3 18.0 18.7
2019-Mar-14 08:00N 27°48' W 015°24'6 6.0 030 / 291022.4 17.7 18.6
2019-Mar-14 07:00N 27°42' W 015°24'5 5.3 040 / 281021.7 17.9 18.7
2019-Mar-14 06:00N 27°42' W 015°30'5 5.3 040 / 221021.3 17.7 18.7
2019-Mar-14 05:00N 27°42' W 015°36'5 5.3 060 / 61021.5 17.7 19.1
2019-Mar-14 04:00N 27°42' W 015°42'0 0.0 060 / 61021.6 17.5 19.3
2019-Mar-14 03:00N 27°42' W 015°42'0 0.0 290 / 21022.0 18.2 19.3
2019-Mar-14 02:00N 27°42' W 015°42'8 8.0 220 / 101022.7 18.4 19.3
2019-Mar-14 01:00N 27°48' W 015°48'0 0.0 200 / 91023.2 18.4 19.2
2019-Mar-14 00:00N 27°48' W 015°48'8 8.0 230 / 31023.5 18.4 19.6
2019-Mar-13 23:00N 27°54' W 015°54'0 0.0 220 / 21023.9 18.5 19.3
2019-Mar-13 22:00N 27°54' W 015°54'6 6.0 030 / 261023.7 18.4 19.4
2019-Mar-13 21:00N 28°00' W 015°54'5 5.3 030 / 271023.7 18.4 19.0
2019-Mar-13 20:00N 28°00' W 015°48'6 6.0 040 / 241024.0 18.2 18.9
2019-Mar-13 19:00N 28°06' W 015°48'213.2 050 / 221023.9 18.2 18.8
2019-Mar-13 18:51N 28°06' W 015°50'2 5.1
2019-Mar-13 18:28N 28°08' W 015°51'510.0
2019-Mar-13 18:00N 28°12' W 015°54'0 0.0 040 / 201024.3 18.4 18.8
2019-Mar-13 17:00N 28°12' W 015°54'8 8.0 040 / 181024.4 18.4 19.0
2019-Mar-13 16:00N 28°18' W 016°00'2 7.9 040 / 191024.5 18.2 19.0
2019-Mar-13 15:45N 28°19' W 015°58'2 2.6
2019-Mar-13 15:00N 28°18' W 016°00'0 0.0 040 / 181025.0 18.2 19.1
2019-Mar-13 14:00N 28°18' W 016°00'2 2.1 030 / 191025.7 18.2 19.0
2019-Mar-13 13:12N 28°19' W 015°59'2 8.3
2019-Mar-13 13:00N 28°18' W 016°00'6 6.0 030 / 181026.6 17.9 19.0
2019-Mar-13 12:00N 28°24' W 016°00'1 5.2 020 / 181027.4 17.9 18.9
2019-Mar-13 11:45N 28°23' W 016°01'1 2.6
2019-Mar-13 11:29N 28°24' W 016°01'3 6.0
2019-Mar-13 11:00N 28°26' W 016°03'3227.8
2019-Mar-13 11:00N 28°24' W 016°00'713.5 040 / 211027.8 17.9 18.9
2019-Mar-13 10:30N 28°29' W 016°05'3 5.6
2019-Mar-13 10:00N 28°31' W 016°07'189.3
2019-Mar-13 10:00N 28°30' W 016°06'1 2.2 030 / 201028.2 17.7 18.9
2019-Mar-13 09:30N 28°30' W 016°07'1 2.0
2019-Mar-13 09:00N 28°29' W 016°07'181.1
2019-Mar-13 09:00N 28°30' W 016°06'4 7.5 020 / 211027.5 17.7 18.9
2019-Mar-13 08:30N 28°28' W 016°09'3 5.3
2019-Mar-13 08:01N 28°26' W 016°12'2138.1
2019-Mar-13 08:00N 28°24' W 016°12'2 3.9 040 / 131026.8 17.7 18.8
2019-Mar-13 07:30N 28°25' W 016°14'0 0.0
2019-Mar-13 07:00N 28°25' W 016°14'2114.3
2019-Mar-13 07:00N 28°24' W 016°12'4 8.3 030 / 51026.1 17.7 18.9
2019-Mar-13 06:30N 28°23' W 016°16'3 5.9
2019-Mar-13 06:00N 28°23' W 016°20'2259.3
2019-Mar-13 06:00N 28°24' W 016°18'5 9.4 250 / 31025.4 17.4 19.2
2019-Mar-13 05:30N 28°20' W 016°21'1 2.2
2019-Mar-13 05:00N 28°19' W 016°20'2142.5
2019-Mar-13 05:00N 28°18' W 016°18'2 4.7 1025.1 17.2 18.9
2019-Mar-13 04:30N 28°19' W 016°20'2 4.5
2019-Mar-13 04:00N 28°18' W 016°18'28236.7 070 / 171025.2 17.9 19.0
2019-Mar-13 03:59N 28°18' W 016°21'7 6.8
2019-Mar-13 03:00N 28°12' W 016°24'0 0.0 030 / 161026.2 17.9 18.9
2019-Mar-13 02:00N 28°12' W 016°24'6 6.0 050 / 261026.8 17.9 18.9
2019-Mar-13 01:00N 28°06' W 016°24'8 8.0 050 / 261027.1 17.7 19.1
2019-Mar-13 00:00N 28°00' W 016°30'5 5.3 050 / 261027.4 17.9 19.1
2019-Mar-12 23:00N 28°00' W 016°36'0 0.0 050 / 151027.7 17.4 19.1
2019-Mar-12 22:00N 28°00' W 016°36'5 5.3 070 / 171027.8 17.7 19.1
2019-Mar-12 21:00N 28°00' W 016°42'0 0.0 100 / 81027.3 18.4 20.0
2019-Mar-12 20:00N 28°00' W 016°42'8 8.0 210 / 131026.6 18.9 20.0
2019-Mar-12 19:00N 28°06' W 016°48'6 6.0 190 / 111026.2 18.9 19.8
2019-Mar-12 18:00N 28°12' W 016°48'0 0.0 180 / 121025.9 18.9 19.9
2019-Mar-12 17:00N 28°12' W 016°48'8 8.0 170 / 141025.8 18.9 20.0
2019-Mar-12 16:00N 28°18' W 016°54'0 0.0 170 / 91026.0 19.7 20.7
2019-Mar-12 15:00N 28°18' W 016°54'0 0.0 030 / 171026.0 19.7 20.6
2019-Mar-12 14:00N 28°18' W 016°54'5 5.3 040 / 291026.5 18.2 20.0
2019-Mar-12 13:00N 28°18' W 017°00'0 0.0 030 / 271027.0 18.0 19.4
2019-Mar-12 12:00N 28°18' W 017°00'6 6.0 020 / 251027.9 18.0 19.4
2019-Mar-12 11:00N 28°12' W 017°00'0 0.0 010 / 231028.1 18.0 19.1
2019-Mar-12 10:00N 28°12' W 017°00'8 8.0 340 / 241027.7 17.7 19.1
2019-Mar-12 09:00N 28°06' W 017°06'0 0.0 340 / 301026.9 17.9 19.1
2019-Mar-12 08:00N 28°06' W 017°06'6 6.0 360 / 241025.5 18.2 19.1
2019-Mar-12 07:00N 28°00' W 017°06'5 5.3 040 / 21025.5 18.2 19.7
2019-Mar-12 06:00N 28°00' W 017°12'5 6.0 280 / 91025.2 18.2 19.7
2019-Mar-12 05:11N 28°01' W 017°17'1 5.2
2019-Mar-12 05:00N 28°01' W 017°18'198.6
2019-Mar-12 05:00N 28°00' W 017°18'2 4.9 1025.2 18.2 19.9
2019-Mar-12 04:30N 28°02' W 017°19'1 1.6
2019-Mar-12 04:00N 28°03' W 017°19'3204.6
2019-Mar-12 04:00N 28°06' W 017°18'3 6.0 130 / 41025.2 18.4 20.0
2019-Mar-12 03:30N 28°05' W 017°21'3 5.9
2019-Mar-12 03:00N 28°06' W 017°24'2365.1 040 / 111025.7 19.2 19.8
2019-Mar-12 02:59N 28°07' W 017°22'6 5.7
2019-Mar-12 02:00N 28°12' W 017°24'316.1 030 / 311026.0 17.9 19.5
2019-Mar-12 01:49N 28°09' W 017°24'1 4.4
2019-Mar-12 01:30N 28°08' W 017°25'2 4.8
2019-Mar-12 01:00N 28°06' W 017°24'3254.8 040 / 271026.7 17.9 19.6
2019-Mar-12 00:59N 28°07' W 017°27'3 2.8
2019-Mar-12 00:00N 28°06' W 017°30'8 8.0 040 / 251027.2 18.0 19.4
2019-Mar-11 23:00N 28°00' W 017°36'0 0.0 030 / 271027.1 18.2 19.4
2019-Mar-11 22:00N 28°00' W 017°36'0 0.0 030 / 281026.8 18.2 19.4
2019-Mar-11 21:00N 28°00' W 017°36'0 0.0 030 / 251026.5 18.4 19.5
2019-Mar-11 20:00N 28°00' W 017°36'0 0.0 040 / 261026.0 18.5 19.5
2019-Mar-11 19:00N 28°00' W 017°36'8 8.0 040 / 261025.5 18.5 19.4
2019-Mar-11 18:00N 27°54' W 017°42'3 8.1 040 / 251024.9 18.7 19.5
2019-Mar-11 17:39N 27°53' W 017°45'1 4.9
2019-Mar-11 17:28N 27°53' W 017°46'2 4.9
2019-Mar-11 17:00N 27°54' W 017°48'6 8.6 040 / 201025.3 18.7 19.5
2019-Mar-11 16:16N 27°48' W 017°51'2 8.7
2019-Mar-11 16:00N 27°48' W 017°54'2 6.6 020 / 221025.2 18.9 19.6
2019-Mar-11 15:41N 27°46' W 017°54'2 3.1
2019-Mar-11 15:00N 27°48' W 017°54'6 6.0 040 / 211025.2 18.9 19.5
2019-Mar-11 14:00N 27°42' W 017°54'5 5.3 040 / 231025.6 18.9 19.6
2019-Mar-11 13:00N 27°42' W 018°00'8 8.0 040 / 281026.4 19.0 19.5
2019-Mar-11 12:00N 27°36' W 017°54'5 5.3 030 / 251027.1 18.9 19.4
2019-Mar-11 11:00N 27°36' W 017°48'5 5.3 030 / 231027.3 19.0 19.5
2019-Mar-11 10:00N 27°36' W 017°42'5 5.3 020 / 211027.1 19.0 19.5
2019-Mar-11 09:00N 27°36' W 017°36'8 8.0 020 / 221026.2 19.2 19.7
2019-Mar-11 08:00N 27°30' W 017°30'5 5.3 360 / 101025.4 19.4 19.9
2019-Mar-11 07:00N 27°30' W 017°24'1110.6 270 / 51024.6 18.9 19.5
2019-Mar-11 06:00N 27°30' W 017°12'0 0.0 050 / 111024.0 19.7 19.8
2019-Mar-11 05:00N 27°30' W 017°12'1212.2 060 / 171023.9 18.9 19.6
2019-Mar-11 04:00N 27°24' W 017°00'5 5.3 050 / 261024.2 18.4 18.8
2019-Mar-11 03:00N 27°24' W 016°54'1110.7 050 / 221024.6 18.7 18.9
2019-Mar-11 02:00N 27°24' W 016°42'6 6.0 040 / 261025.0 18.4 18.7
2019-Mar-11 01:00N 27°18' W 016°42'0 0.0 020 / 231025.4 18.4 18.7
2019-Mar-11 00:00N 27°18' W 016°42'8 8.0 050 / 291025.6 18.4 18.7
2019-Mar-10 23:00N 27°12' W 016°36'6 6.0 040 / 271025.4 18.4 18.7
2019-Mar-10 22:00N 27°06' W 016°36'13 6.6 030 / 271025.4 18.5 18.7
2019-Mar-10 20:00N 26°54' W 016°30'8 8.0 030 / 221024.2 18.7 18.8
2019-Mar-10 19:00N 26°48' W 016°24'8 8.0 040 / 161023.5 18.9 19.3
2019-Mar-10 18:00N 26°42' W 016°30'6 6.0 050 / 161023.3 19.2 19.2
2019-Mar-10 17:00N 26°36' W 016°30'1212.0 050 / 211023.4 19.2 19.3
2019-Mar-10 16:00N 26°24' W 016°30'6 6.0 060 / 211023.4 19.0 19.3
2019-Mar-10 15:00N 26°18' W 016°30'6 6.0 060 / 221023.4 18.9 19.2
2019-Mar-10 14:00N 26°12' W 016°30'6 6.0 060 / 251023.8 18.9 19.2
2019-Mar-10 13:00N 26°06' W 016°30'5 5.4 060 / 231024.2 18.4 19.2
2019-Mar-10 12:00N 26°06' W 016°36'6 6.0 070 / 261024.6 18.4 19.1
2019-Mar-10 11:00N 26°00' W 016°36'8 8.1 070 / 261024.8 18.4 19.0
2019-Mar-10 10:00N 25°54' W 016°42'6 6.0 070 / 301024.4 18.4 19.1
2019-Mar-10 09:00N 25°48' W 016°42'5 5.4 060 / 291023.6 18.4 18.9
2019-Mar-10 08:00N 25°48' W 016°48'8 8.1 060 / 261022.8 18.0 18.8
2019-Mar-10 07:00N 25°42' W 016°54'0 0.0 060 / 261022.0 18.0 18.8
2019-Mar-10 06:00N 25°42' W 016°54'8 8.1 070 / 281021.4 18.2 19.0
2019-Mar-10 05:00N 25°36' W 017°00'6 6.0 060 / 281021.0 18.2 19.0
2019-Mar-10 04:00N 25°30' W 017°00'5 5.4 050 / 261021.1 18.4 18.9
2019-Mar-10 03:00N 25°30' W 017°06'6 6.0 060 / 271021.4 18.2 19.0
2019-Mar-10 02:00N 25°24' W 017°06'5 5.4 050 / 271021.7 18.2 19.2
2019-Mar-10 01:00N 25°24' W 017°12'6 6.0 050 / 281021.8 18.2 19.4
2019-Mar-10 00:00N 25°18' W 017°12'8 8.1 060 / 281022.2 18.4 19.7
2019-Mar-09 23:00N 25°12' W 017°18'5 5.4 050 / 281022.4 18.4 19.7
2019-Mar-09 22:00N 25°12' W 017°24'6 6.0 050 / 311021.9 18.7 19.6
2019-Mar-09 21:00N 25°06' W 017°24'5 5.4 050 / 281021.8 18.7 19.5
2019-Mar-09 20:00N 25°06' W 017°30'6 6.0 050 / 261021.4 18.5 19.4
2019-Mar-09 19:00N 25°00' W 017°30'8 8.1 050 / 261020.8 18.7 19.4
2019-Mar-09 18:00N 24°54' W 017°36'5 5.4 050 / 261020.2 18.7 19.5
2019-Mar-09 17:00N 24°54' W 017°42'6 6.0 050 / 271020.1 18.7 19.4
2019-Mar-09 16:00N 24°48' W 017°42'8 8.1 050 / 241020.6 18.7 19.0
2019-Mar-09 15:00N 24°42' W 017°48'8 8.1 050 / 251021.0 18.5 19.1
2019-Mar-09 14:00N 24°36' W 017°54'0 0.0 060 / 241021.8 18.7 19.4
2019-Mar-09 13:00N 24°36' W 017°54'8 8.1 060 / 271022.6 18.5 19.9
2019-Mar-09 12:00N 24°30' W 018°00'8 8.1 050 / 261023.0 18.9 19.8
2019-Mar-09 11:00N 24°24' W 018°06'0 0.0 060 / 261023.2 18.7 19.5
2019-Mar-09 10:00N 24°24' W 018°06'8 8.1 040 / 281023.0 18.9 19.6
2019-Mar-09 09:00N 24°18' W 018°12'8 8.1 060 / 281022.7 18.7 19.9
2019-Mar-09 08:00N 24°12' W 018°18'6 6.0 050 / 271022.1 18.7 20.0
2019-Mar-09 07:00N 24°06' W 018°18'5 5.5 050 / 281021.6 18.5 19.9
2019-Mar-09 06:00N 24°06' W 018°24'8 8.1 060 / 241021.1 18.7 19.9
2019-Mar-09 05:00N 24°00' W 018°30'6 6.0 050 / 221020.8 18.9 19.8
2019-Mar-09 04:00N 23°54' W 018°30'8 8.1 050 / 211021.2 18.9 19.6
2019-Mar-09 03:00N 23°48' W 018°36'8 8.1 050 / 241021.5 18.9 19.6
2019-Mar-09 02:00N 23°42' W 018°42'8 8.1 060 / 191022.3 19.2 19.1
2019-Mar-09 01:00N 23°36' W 018°48'   050 / 241022.3 19.0 19.2

Dump ship's entire track history